createdAt,value
2022-12-15T00:02:19.209Z,0.20
2022-12-15T00:05:05.640Z,0.20
2022-12-15T00:07:52.072Z,0.20
2022-12-15T00:10:40.002Z,0.30
2022-12-15T00:13:29.962Z,0.30
2022-12-15T00:16:16.684Z,0.30
2022-12-15T00:19:02.908Z,0.20
2022-12-15T00:21:49.042Z,0.30
2022-12-15T00:24:35.122Z,0.27
2022-12-15T00:27:22.565Z,0.20
2022-12-15T00:30:08.831Z,0.20
2022-12-15T00:32:55.122Z,0.20
2022-12-15T00:35:40.947Z,0.20
2022-12-15T00:38:27.475Z,0.30
2022-12-15T00:40:59.729Z,0.20
2022-12-15T00:43:30.403Z,0.20
2022-12-15T00:46:16.857Z,0.20
2022-12-15T00:48:45.521Z,0.20
2022-12-15T00:51:13.065Z,0.20
2022-12-15T00:53:59.115Z,0.20
2022-12-15T00:56:45.743Z,0.20
2022-12-15T00:59:33.121Z,0.30
2022-12-15T01:02:19.788Z,0.30
2022-12-15T01:05:05.836Z,0.30
2022-12-15T01:07:51.929Z,0.30
2022-12-15T01:10:38.546Z,0.27
2022-12-15T01:13:24.968Z,0.20
2022-12-15T01:16:12.400Z,0.23
2022-12-15T01:18:58.254Z,0.30
2022-12-15T01:21:26.901Z,0.30
2022-12-15T01:23:55.370Z,0.20
2022-12-15T01:26:23.902Z,0.30
2022-12-15T01:28:52.380Z,0.20
2022-12-15T01:31:22.329Z,0.20
2022-12-15T01:33:50.782Z,0.20
2022-12-15T01:36:19.195Z,0.30
2022-12-15T01:38:53.716Z,0.30
2022-12-15T01:41:21.756Z,0.20
2022-12-15T01:43:50.282Z,0.30
2022-12-15T01:46:20.559Z,0.20
2022-12-15T01:48:51.774Z,0.30
2022-12-15T01:51:24.277Z,0.20
2022-12-15T01:53:55.900Z,0.20
2022-12-15T01:56:25.697Z,0.20
2022-12-15T01:58:55.408Z,0.20
2022-12-15T02:01:24.070Z,0.23
2022-12-15T02:03:54.024Z,0.23
2022-12-15T02:06:24.381Z,0.20
2022-12-15T02:08:55.392Z,0.20
2022-12-15T02:11:36.277Z,0.20
2022-12-15T02:14:06.422Z,0.20
2022-12-15T02:16:40.573Z,0.20
2022-12-15T02:19:20.764Z,0.20
2022-12-15T02:21:58.006Z,0.30
2022-12-15T02:24:59.057Z,0.20
2022-12-15T02:27:35.596Z,0.20
2022-12-15T02:30:21.728Z,0.20
2022-12-15T02:32:56.622Z,0.20
2022-12-15T02:35:27.788Z,0.20
2022-12-15T02:37:56.620Z,0.20
2022-12-15T02:40:25.190Z,0.20
2022-12-15T02:42:55.124Z,0.20
2022-12-15T02:45:25.865Z,0.20
2022-12-15T02:48:00.974Z,0.20
2022-12-15T02:50:41.581Z,0.20
2022-12-15T02:53:16.074Z,0.20
2022-12-15T02:55:51.093Z,0.20
2022-12-15T02:58:23.070Z,0.20
2022-12-15T03:00:54.481Z,0.20
2022-12-15T03:03:25.080Z,0.20
2022-12-15T03:05:54.711Z,0.20
2022-12-15T03:08:23.502Z,0.20
2022-12-15T03:10:53.100Z,0.20
2022-12-15T03:13:21.575Z,0.27
2022-12-15T03:15:50.065Z,0.23
2022-12-15T03:18:18.901Z,0.20
2022-12-15T03:20:48.744Z,0.20
2022-12-15T03:23:17.302Z,0.20
2022-12-15T03:25:46.549Z,0.20
2022-12-15T03:28:18.678Z,0.20
2022-12-15T03:30:50.439Z,0.20
2022-12-15T03:33:19.560Z,0.20
2022-12-15T03:35:49.871Z,0.20
2022-12-15T03:38:18.434Z,0.20
2022-12-15T03:40:46.891Z,0.20
2022-12-15T03:43:15.398Z,0.20
2022-12-15T03:45:43.912Z,0.20
2022-12-15T03:48:12.525Z,0.20
2022-12-15T03:50:41.073Z,0.20
2022-12-15T03:53:10.998Z,0.20
2022-12-15T03:55:39.501Z,0.20
2022-12-15T03:58:08.067Z,0.10
2022-12-15T04:00:36.691Z,0.20
2022-12-15T04:03:05.521Z,0.20
2022-12-15T04:05:35.516Z,0.20
2022-12-15T04:08:04.041Z,0.20
2022-12-15T04:10:35.317Z,0.20
2022-12-15T04:13:04.862Z,0.20
2022-12-15T04:15:33.447Z,0.20
2022-12-15T04:18:03.209Z,0.20
2022-12-15T04:20:30.972Z,0.30
2022-12-15T04:23:00.466Z,0.20
2022-12-15T04:25:46.606Z,0.20
2022-12-15T04:28:34.291Z,0.20
2022-12-15T04:31:22.694Z,0.20
2022-12-15T04:34:10.870Z,0.20
2022-12-15T04:36:58.189Z,0.20
2022-12-15T04:39:44.620Z,0.20
2022-12-15T04:42:30.652Z,0.20
2022-12-15T04:45:21.006Z,0.20
2022-12-15T04:48:07.620Z,0.20
2022-12-15T04:50:53.577Z,0.20
2022-12-15T04:53:39.928Z,0.20
2022-12-15T04:56:29.284Z,0.20
2022-12-15T04:59:15.007Z,0.20
2022-12-15T05:02:02.552Z,0.20
2022-12-15T05:04:48.972Z,0.20
2022-12-15T05:07:35.097Z,0.20
2022-12-15T05:10:21.125Z,0.20
2022-12-15T05:13:07.293Z,0.20
2022-12-15T05:15:53.658Z,0.20
2022-12-15T05:18:41.194Z,0.20
2022-12-15T05:21:27.031Z,0.20
2022-12-15T05:24:12.940Z,0.20
2022-12-15T05:26:59.181Z,0.20
2022-12-15T05:29:45.147Z,0.20
2022-12-15T05:32:13.792Z,0.20
2022-12-15T05:34:43.709Z,0.20
2022-12-15T05:37:12.173Z,0.20
2022-12-15T05:39:40.783Z,0.20
2022-12-15T05:42:09.253Z,0.20
2022-12-15T05:44:37.878Z,0.17
2022-12-15T05:47:06.447Z,0.20
2022-12-15T05:49:35.748Z,0.20
2022-12-15T05:52:05.783Z,0.20
2022-12-15T05:54:34.320Z,0.30
2022-12-15T05:57:03.274Z,0.20
2022-12-15T05:59:34.618Z,0.20
2022-12-15T06:02:03.235Z,0.20
2022-12-15T06:04:32.257Z,0.20
2022-12-15T06:07:00.744Z,0.20
2022-12-15T06:09:30.623Z,0.20
2022-12-15T06:11:59.152Z,0.20
2022-12-15T06:14:27.640Z,0.20
2022-12-15T06:16:56.218Z,0.20
2022-12-15T06:19:24.992Z,0.20
2022-12-15T06:21:53.421Z,0.20
2022-12-15T06:24:22.222Z,0.20
2022-12-15T06:26:52.189Z,0.20
2022-12-15T06:29:20.963Z,0.20
2022-12-15T06:31:49.924Z,0.20
2022-12-15T06:34:19.032Z,0.20
2022-12-15T06:36:48.361Z,0.20
2022-12-15T06:39:17.610Z,0.20
2022-12-15T06:41:46.797Z,0.20
2022-12-15T06:44:17.729Z,0.20
2022-12-15T06:46:46.885Z,0.20
2022-12-15T06:49:16.075Z,0.20
2022-12-15T06:51:45.106Z,0.20
2022-12-15T06:54:13.803Z,0.20
2022-12-15T06:56:42.414Z,0.20
2022-12-15T06:59:12.516Z,0.20
2022-12-15T07:01:43.240Z,0.20
2022-12-15T07:04:12.308Z,0.20
2022-12-15T07:06:42.400Z,0.20
2022-12-15T07:09:15.962Z,0.20
2022-12-15T07:11:45.292Z,0.20
2022-12-15T07:14:13.965Z,0.20
2022-12-15T07:16:45.599Z,0.20
2022-12-15T07:19:14.330Z,0.20
2022-12-15T07:21:42.848Z,0.20
2022-12-15T07:24:12.216Z,0.20
2022-12-15T07:26:40.783Z,0.20
2022-12-15T07:29:09.342Z,0.20
2022-12-15T07:31:37.887Z,0.30
2022-12-15T07:34:07.812Z,0.20
2022-12-15T07:36:36.255Z,0.20
2022-12-15T07:39:05.512Z,0.20
2022-12-15T07:41:34.326Z,0.20
2022-12-15T07:44:03.430Z,0.20
2022-12-15T07:46:31.940Z,0.20
2022-12-15T07:49:00.486Z,0.20
2022-12-15T07:51:30.442Z,0.20
2022-12-15T07:53:58.911Z,0.20
2022-12-15T07:56:27.329Z,0.20
2022-12-15T07:58:55.827Z,0.20
2022-12-15T08:01:24.840Z,0.20
2022-12-15T08:03:53.505Z,0.20
2022-12-15T08:06:22.030Z,0.20
2022-12-15T08:08:51.915Z,0.20
2022-12-15T08:11:20.915Z,0.20
2022-12-15T08:14:02.423Z,0.20
2022-12-15T08:16:31.499Z,0.20
2022-12-15T08:19:00.154Z,0.20
2022-12-15T08:21:28.614Z,0.20
2022-12-15T08:23:58.493Z,0.10
2022-12-15T08:26:30.698Z,0.20
2022-12-15T08:29:17.424Z,0.20
2022-12-15T08:31:48.469Z,0.20
2022-12-15T08:34:17.032Z,0.20
2022-12-15T08:36:45.518Z,0.10
2022-12-15T08:39:15.455Z,0.10
2022-12-15T08:41:44.057Z,0.10
2022-12-15T08:44:12.597Z,0.10
2022-12-15T08:46:41.157Z,0.10
2022-12-15T08:49:10.027Z,0.10
2022-12-15T08:51:38.610Z,0.10
2022-12-15T08:54:07.140Z,0.10
2022-12-15T08:56:37.304Z,0.10
2022-12-15T08:59:05.761Z,0.10
2022-12-15T09:01:39.429Z,0.10
2022-12-15T09:04:08.461Z,0.10
2022-12-15T09:06:37.879Z,0.10
2022-12-15T09:09:08.586Z,0.10
2022-12-15T09:11:38.506Z,0.10
2022-12-15T09:14:08.179Z,0.10
2022-12-15T09:16:37.000Z,0.10
2022-12-15T09:19:05.622Z,0.10
2022-12-15T09:21:34.069Z,0.10
2022-12-15T09:24:03.414Z,0.10
2022-12-15T09:26:32.904Z,0.10
2022-12-15T09:29:03.165Z,0.10
2022-12-15T09:31:32.883Z,0.10
2022-12-15T09:34:02.341Z,0.10
2022-12-15T09:36:32.756Z,0.10
2022-12-15T09:39:03.097Z,0.10
2022-12-15T09:41:32.578Z,0.10
2022-12-15T09:44:02.652Z,0.10
2022-12-15T09:46:50.255Z,0.10
2022-12-15T09:49:23.194Z,0.10
2022-12-15T09:51:55.666Z,0.10
2022-12-15T09:54:25.578Z,0.10
2022-12-15T09:56:57.079Z,0.10
2022-12-15T09:59:31.988Z,0.10
2022-12-15T10:02:12.100Z,0.10
2022-12-15T10:04:44.768Z,0.10
2022-12-15T10:07:17.117Z,0.10
2022-12-15T10:09:45.724Z,0.10
2022-12-15T10:12:19.011Z,0.10
2022-12-15T10:14:50.855Z,0.10
2022-12-15T10:17:23.646Z,0.10
2022-12-15T10:19:56.470Z,0.00
2022-12-15T10:22:26.421Z,0.03
2022-12-15T10:25:11.634Z,0.10
2022-12-15T10:27:53.406Z,0.10
2022-12-15T10:30:23.274Z,0.10
2022-12-15T10:32:56.283Z,0.10
2022-12-15T10:35:27.773Z,0.10
2022-12-15T10:37:58.755Z,0.10
2022-12-15T10:40:42.220Z,0.10
2022-12-15T10:43:15.712Z,0.10
2022-12-15T10:45:44.434Z,0.10
2022-12-15T10:48:21.785Z,0.10
2022-12-15T10:50:50.419Z,0.10
2022-12-15T10:53:34.360Z,0.10
2022-12-15T10:56:03.195Z,0.10
2022-12-15T10:58:31.983Z,0.10
2022-12-15T11:01:07.687Z,0.10
2022-12-15T11:03:40.930Z,0.10
2022-12-15T11:06:12.729Z,0.10
2022-12-15T11:08:43.796Z,0.10
2022-12-15T11:11:45.206Z,0.10
2022-12-15T11:14:15.412Z,0.10
2022-12-15T11:16:54.848Z,0.10
2022-12-15T11:19:40.324Z,0.00
2022-12-15T11:22:14.419Z,0.10
2022-12-15T11:24:48.801Z,0.10
2022-12-15T11:27:21.258Z,0.10
2022-12-15T11:29:55.911Z,0.10
2022-12-15T11:32:25.919Z,0.10
2022-12-15T11:34:56.426Z,0.10
2022-12-15T11:37:36.799Z,0.10
2022-12-15T11:40:19.341Z,0.10
2022-12-15T11:42:51.974Z,0.10
2022-12-15T11:45:21.765Z,0.10
2022-12-15T11:47:52.115Z,0.10
2022-12-15T11:50:31.975Z,0.10
2022-12-15T11:53:18.419Z,0.10
2022-12-15T11:55:53.394Z,0.10
2022-12-15T11:58:32.287Z,0.10
2022-12-15T12:01:05.121Z,0.10
2022-12-15T12:03:39.294Z,0.10
2022-12-15T12:06:14.159Z,0.10
2022-12-15T12:08:57.782Z,0.10
2022-12-15T12:11:29.479Z,0.10
2022-12-15T12:16:58.361Z,0.10
2022-12-15T12:19:29.460Z,0.10
2022-12-15T12:22:01.171Z,0.10
2022-12-15T12:24:32.297Z,0.10
2022-12-15T12:27:02.559Z,0.10
2022-12-15T12:29:33.264Z,0.10
2022-12-15T12:32:05.888Z,0.10
2022-12-15T12:34:37.018Z,0.10
2022-12-15T12:37:15.891Z,0.10
2022-12-15T12:39:44.743Z,0.10
2022-12-15T12:42:17.311Z,0.10
2022-12-15T12:44:46.254Z,0.10
2022-12-15T12:47:19.088Z,0.10
2022-12-15T12:49:50.300Z,0.10
2022-12-15T12:52:25.028Z,0.10
2022-12-15T12:54:57.714Z,0.10
2022-12-15T12:57:32.069Z,0.10
2022-12-15T13:00:02.278Z,0.10
2022-12-15T13:03:00.724Z,0.10
2022-12-15T13:05:31.433Z,0.00
2022-12-15T13:08:14.724Z,0.10
2022-12-15T13:10:45.076Z,0.03
2022-12-15T13:13:36.648Z,0.10
2022-12-15T13:16:08.772Z,0.10
2022-12-15T13:18:52.028Z,0.10
2022-12-15T13:21:35.403Z,0.10
2022-12-15T13:24:04.207Z,0.10
2022-12-15T13:26:34.320Z,0.10
2022-12-15T13:29:02.755Z,0.10
2022-12-15T13:31:32.733Z,0.10
2022-12-15T13:34:28.683Z,0.10
2022-12-15T13:36:58.405Z,0.10
2022-12-15T13:39:34.419Z,0.10
2022-12-15T13:42:34.246Z,0.10
2022-12-15T13:45:26.434Z,0.10
2022-12-15T13:47:57.769Z,0.10
2022-12-15T13:50:34.586Z,0.10
2022-12-15T13:53:20.497Z,0.10
2022-12-15T13:55:55.105Z,0.00
2022-12-15T13:58:25.118Z,0.10
2022-12-15T14:00:56.345Z,0.10
2022-12-15T14:03:25.072Z,0.10
2022-12-15T14:05:54.475Z,0.10
2022-12-15T14:08:23.644Z,0.10
2022-12-15T14:10:52.959Z,0.10
2022-12-15T14:13:22.801Z,0.10
2022-12-15T14:15:53.706Z,0.10
2022-12-15T14:18:33.179Z,0.10
2022-12-15T14:21:02.346Z,0.10
2022-12-15T14:23:31.865Z,0.10
2022-12-15T14:26:05.968Z,0.10
2022-12-15T14:28:35.898Z,0.10
2022-12-15T14:31:05.879Z,0.10
2022-12-15T14:33:38.771Z,0.10
2022-12-15T14:36:09.534Z,0.10
2022-12-15T14:38:42.171Z,0.10
2022-12-15T14:41:16.198Z,0.10
2022-12-15T14:43:44.595Z,0.10
2022-12-15T14:46:33.168Z,0.10
2022-12-15T14:49:04.885Z,0.10
2022-12-15T14:51:34.375Z,0.10
2022-12-15T14:54:02.916Z,0.10
2022-12-15T14:56:31.704Z,0.10
2022-12-15T14:59:03.753Z,0.10
2022-12-15T15:01:35.527Z,0.10
2022-12-15T15:03:04.870Z,0.10
2022-12-15T15:04:06.402Z,0.10
2022-12-15T15:06:37.013Z,0.10
2022-12-15T15:09:13.664Z,0.10
2022-12-15T15:11:43.493Z,0.10
2022-12-15T15:14:14.745Z,0.10
2022-12-15T15:16:43.709Z,0.10
2022-12-15T15:19:18.514Z,0.10
2022-12-15T15:21:47.704Z,0.10
2022-12-15T15:24:24.953Z,0.10
2022-12-15T15:26:53.785Z,0.10
2022-12-15T15:29:38.905Z,0.10
2022-12-15T15:32:08.594Z,0.10
2022-12-15T15:34:38.693Z,0.10
2022-12-15T15:37:08.118Z,0.10
2022-12-15T15:39:36.592Z,0.10
2022-12-15T15:42:12.886Z,0.10
2022-12-15T15:44:41.416Z,0.10
2022-12-15T15:47:18.207Z,0.10
2022-12-15T15:49:49.366Z,0.10
2022-12-15T15:52:17.950Z,0.10
2022-12-15T15:54:46.714Z,0.10
2022-12-15T15:57:16.268Z,0.10
2022-12-15T15:59:44.765Z,0.13
2022-12-15T16:02:14.500Z,0.10
2022-12-15T16:04:43.454Z,0.10
2022-12-15T16:07:19.048Z,0.10
2022-12-15T16:09:47.513Z,0.10
2022-12-15T16:12:23.119Z,0.10
2022-12-15T16:14:51.581Z,0.10
2022-12-15T16:17:20.402Z,0.10
2022-12-15T16:19:48.891Z,0.10
2022-12-15T16:22:19.478Z,0.10
2022-12-15T16:24:48.191Z,0.10
2022-12-15T16:27:16.861Z,0.10
2022-12-15T16:29:45.554Z,0.10
2022-12-15T16:32:14.009Z,0.10
2022-12-15T16:34:42.711Z,0.10
2022-12-15T16:37:20.592Z,0.10
2022-12-15T16:39:50.550Z,0.10
2022-12-15T16:42:18.995Z,0.20
2022-12-15T16:44:47.421Z,0.10
2022-12-15T16:47:16.164Z,0.10
2022-12-15T16:49:45.263Z,0.10
2022-12-15T16:52:19.081Z,0.10
2022-12-15T16:54:49.193Z,0.10
2022-12-15T16:57:19.992Z,0.10
2022-12-15T16:59:49.841Z,0.10
2022-12-15T17:02:27.227Z,0.10
2022-12-15T17:04:55.958Z,0.10
2022-12-15T17:07:25.358Z,0.10
2022-12-15T17:09:53.790Z,0.10
2022-12-15T17:12:23.653Z,0.10
2022-12-15T17:14:52.077Z,0.10
2022-12-15T17:17:21.707Z,0.10
2022-12-15T17:20:27.926Z,0.10
2022-12-15T17:22:43.875Z,0.10
2022-12-15T17:25:23.723Z,0.10
2022-12-15T17:28:08.341Z,0.10
2022-12-15T17:30:36.780Z,0.10
2022-12-15T17:33:05.277Z,0.10
2022-12-15T17:35:33.751Z,0.10
2022-12-15T17:38:03.185Z,0.10
2022-12-15T17:40:34.421Z,0.10
2022-12-15T17:43:05.407Z,0.10
2022-12-15T17:45:35.631Z,0.20
2022-12-15T17:48:04.218Z,0.10
2022-12-15T17:50:33.369Z,0.10
2022-12-15T17:53:02.354Z,0.10
2022-12-15T17:55:35.016Z,0.20
2022-12-15T17:58:04.720Z,0.10
2022-12-15T18:00:34.766Z,0.10
2022-12-15T18:03:04.864Z,0.10
2022-12-15T18:05:33.495Z,0.10
2022-12-15T18:08:03.329Z,0.10
2022-12-15T18:10:35.481Z,0.10
2022-12-15T18:13:04.153Z,0.10
2022-12-15T18:15:34.085Z,0.20
2022-12-15T18:18:04.019Z,0.20
2022-12-15T18:20:32.449Z,0.10
2022-12-15T18:23:01.559Z,0.10
2022-12-15T18:25:32.010Z,0.20
2022-12-15T18:28:00.471Z,0.20
2022-12-15T18:30:29.496Z,0.13
2022-12-15T18:32:59.107Z,0.10
2022-12-15T18:35:32.284Z,0.10
2022-12-15T18:38:00.764Z,0.10
2022-12-15T18:40:30.453Z,0.10
2022-12-15T18:42:58.952Z,0.20
2022-12-15T18:45:28.721Z,0.20
2022-12-15T18:47:57.572Z,0.20
2022-12-15T18:50:27.281Z,0.20
2022-12-15T18:52:59.525Z,0.20
2022-12-15T18:55:33.382Z,0.20
2022-12-15T18:58:02.000Z,0.20
2022-12-15T19:00:32.391Z,0.20
2022-12-15T19:03:03.885Z,0.20
2022-12-15T19:05:37.417Z,0.13
2022-12-15T19:08:10.166Z,0.20
2022-12-15T19:13:23.797Z,0.10
2022-12-15T19:15:52.976Z,0.10
2022-12-15T19:18:40.685Z,0.20
2022-12-15T19:21:32.106Z,0.20
2022-12-15T19:24:02.022Z,0.20
2022-12-15T19:26:30.474Z,0.20
2022-12-15T19:28:59.027Z,0.10
2022-12-15T19:31:27.525Z,0.13
2022-12-15T19:33:55.994Z,0.20
2022-12-15T19:36:26.089Z,0.20
2022-12-15T19:38:56.805Z,0.10
2022-12-15T19:41:26.770Z,0.20
2022-12-15T19:43:55.341Z,0.20
2022-12-15T19:46:24.342Z,0.10
2022-12-15T19:48:54.472Z,0.10
2022-12-15T19:51:25.047Z,0.10
2022-12-15T19:53:53.574Z,0.20
2022-12-15T19:56:22.993Z,0.20
2022-12-15T19:58:52.972Z,0.20
2022-12-15T20:01:21.928Z,0.20
2022-12-15T20:03:51.379Z,0.10
2022-12-15T20:06:21.415Z,0.10
2022-12-15T20:08:52.000Z,0.17
2022-12-15T20:11:22.041Z,0.10
2022-12-15T20:13:51.285Z,0.20
2022-12-15T20:16:21.671Z,0.20
2022-12-15T20:18:50.833Z,0.20
2022-12-15T20:21:22.817Z,0.20
2022-12-15T20:23:53.112Z,0.20
2022-12-15T20:26:22.942Z,0.10
2022-12-15T20:28:51.412Z,0.20
2022-12-15T20:31:23.108Z,0.20
2022-12-15T20:33:52.509Z,0.20
2022-12-15T20:36:22.244Z,0.20
2022-12-15T20:38:51.111Z,0.10
2022-12-15T20:41:20.447Z,0.20
2022-12-15T20:43:49.411Z,0.10
2022-12-15T20:46:20.790Z,0.13
2022-12-15T20:48:52.557Z,0.10
2022-12-15T20:51:23.456Z,0.20
2022-12-15T20:53:52.091Z,0.20
2022-12-15T20:56:23.134Z,0.20
2022-12-15T20:58:52.166Z,0.20
2022-12-15T21:01:21.877Z,0.20
2022-12-15T21:03:56.341Z,0.20
2022-12-15T21:06:25.435Z,0.20
2022-12-15T21:08:54.283Z,0.20
2022-12-15T21:11:24.439Z,0.20
2022-12-15T21:13:53.947Z,0.20
2022-12-15T21:16:23.626Z,0.17
2022-12-15T21:21:43.126Z,0.20
2022-12-15T21:24:15.875Z,0.10
2022-12-15T21:26:44.555Z,0.10
2022-12-15T21:29:14.360Z,0.10
2022-12-15T21:31:42.990Z,0.20
2022-12-15T21:34:12.895Z,0.20
2022-12-15T21:36:42.218Z,0.20
2022-12-15T21:39:11.859Z,0.20
2022-12-15T21:41:41.636Z,0.10
2022-12-15T21:44:13.234Z,0.20
2022-12-15T21:46:41.670Z,0.20
2022-12-15T21:49:17.597Z,0.10
2022-12-15T21:51:47.057Z,0.10
2022-12-15T21:54:17.914Z,0.20
2022-12-15T21:56:46.569Z,0.17
2022-12-15T21:59:15.472Z,0.20
2022-12-15T22:01:44.330Z,0.20
2022-12-15T22:04:18.336Z,0.20
2022-12-15T22:06:50.483Z,0.10
2022-12-15T22:09:19.796Z,0.20
2022-12-15T22:11:49.250Z,0.20
2022-12-15T22:14:21.361Z,0.10
2022-12-15T22:16:49.835Z,0.10
2022-12-15T22:19:19.685Z,0.20
2022-12-15T22:21:48.100Z,0.20
2022-12-15T22:24:16.571Z,0.20
2022-12-15T22:26:45.283Z,0.20
2022-12-15T22:29:15.883Z,0.10
2022-12-15T22:31:44.493Z,0.10
2022-12-15T22:34:14.792Z,0.20
2022-12-15T22:36:44.753Z,0.10
2022-12-15T22:39:14.998Z,0.10
2022-12-15T22:41:44.815Z,0.10
2022-12-15T22:44:17.529Z,0.10
2022-12-15T22:46:46.088Z,0.20
2022-12-15T22:49:16.181Z,0.20
2022-12-15T22:51:46.051Z,0.10
2022-12-15T22:54:20.953Z,0.20
2022-12-15T22:56:51.103Z,0.20
2022-12-15T22:59:22.636Z,0.20
2022-12-15T23:01:51.106Z,0.20
2022-12-15T23:04:19.700Z,0.20
2022-12-15T23:06:49.467Z,0.20
2022-12-15T23:09:20.162Z,0.20
2022-12-15T23:11:47.829Z,0.20
2022-12-15T23:14:17.097Z,0.20
2022-12-15T23:16:45.375Z,0.20
2022-12-15T23:19:23.896Z,0.20
2022-12-15T23:21:53.975Z,0.20
2022-12-15T23:24:22.513Z,0.20
2022-12-15T23:26:50.906Z,0.20
2022-12-15T23:29:20.291Z,0.20
2022-12-15T23:31:48.744Z,0.20
2022-12-15T23:34:17.207Z,0.20
2022-12-15T23:36:45.729Z,0.20
2022-12-15T23:39:15.646Z,0.20
2022-12-15T23:41:44.084Z,0.20
2022-12-15T23:44:13.437Z,0.20
2022-12-15T23:46:41.950Z,0.20
2022-12-15T23:49:10.586Z,0.20
2022-12-15T23:51:39.031Z,0.20
2022-12-15T23:54:07.537Z,0.20
2022-12-15T23:56:41.201Z,0.20
2022-12-15T23:59:09.673Z,0.20
